Time;durP1;ratioP1;P1;durP2;ratioP2;P2;SDS_P1;SDS_P2;PMS_P1;PMS_P2;Temp;Humidity;BMP_temperature;BMP_pressure;BME280_temperature;BME280_humidity;BME280_pressure;Samples;Min_cycle;Max_cycle;Signal;HPM_P1;HPM_P2
2024/01/27 00:01:46;;;;;;;173.70;104.95;;;;;;;9.25;nan;99398.94;5044438;28;20048;-69
2024/01/27 00:04:16;;;;;;;170.63;104.97;;;;;;;9.06;nan;99399.28;5043740;28;20049;-69
2024/01/27 00:06:45;;;;;;;173.85;104.90;;;;;;;8.95;nan;99389.84;5046892;28;20045;-69
2024/01/27 00:09:15;;;;;;;170.75;104.85;;;;;;;8.93;nan;99389.22;5038632;28;20056;-69
2024/01/27 00:11:44;;;;;;;172.25;102.65;;;;;;;9.00;nan;99388.38;5041369;28;20065;-70
2024/01/27 00:14:13;;;;;;;164.07;100.05;;;;;;;9.12;nan;99380.91;5043679;28;20053;-69
2024/01/27 00:16:42;;;;;;;170.88;98.38;;;;;;;8.91;nan;99380.59;5046462;28;20135;-69
2024/01/27 00:19:12;;;;;;;159.00;97.10;;;;;;;9.00;nan;99377.81;5045707;28;20052;-69
2024/01/27 00:21:41;;;;;;;162.85;95.97;;;;;;;9.14;nan;99383.41;5039043;28;20812;-69
2024/01/27 00:24:11;;;;;;;164.90;93.82;;;;;;;8.91;nan;99376.16;5045825;28;20049;-69
2024/01/27 00:26:40;;;;;;;153.32;91.57;;;;;;;8.91;nan;99381.44;5045969;28;20107;-69
2024/01/27 00:29:09;;;;;;;158.25;92.13;;;;;;;8.96;nan;99391.50;5045207;28;20564;-69
2024/01/27 00:31:39;;;;;;;155.27;93.00;;;;;;;8.85;nan;99384.72;5036802;28;20491;-70
2024/01/27 00:34:08;;;;;;;152.70;92.20;;;;;;;9.00;nan;99382.25;5069169;28;20384;-69
2024/01/27 00:36:38;;;;;;;156.15;92.30;;;;;;;8.94;nan;99375.81;5085840;28;20047;-69
2024/01/27 00:39:07;;;;;;;153.23;92.03;;;;;;;8.85;nan;99379.44;5085283;28;20052;-70
2024/01/27 00:41:36;;;;;;;150.73;91.40;;;;;;;8.85;nan;99384.72;5074027;28;20051;-69
2024/01/27 00:44:05;;;;;;;152.10;90.65;;;;;;;8.83;nan;99397.28;5060879;28;20761;-69
2024/01/27 00:46:35;;;;;;;151.48;88.32;;;;;;;8.71;nan;99403.06;5061313;28;20044;-69
2024/01/27 00:49:04;;;;;;;147.18;86.68;;;;;;;8.64;nan;99413.44;5066128;28;20051;-70
2024/01/27 00:51:34;;;;;;;151.20;88.38;;;;;;;8.63;nan;99403.84;5064640;28;20098;-69
2024/01/27 00:54:03;;;;;;;152.90;89.20;;;;;;;8.66;nan;99405.34;5060756;28;20049;-69
2024/01/27 00:56:32;;;;;;;148.57;90.35;;;;;;;8.66;nan;99406.19;5056345;28;20106;-70
2024/01/27 00:59:02;;;;;;;150.88;88.32;;;;;;;8.69;nan;99408.50;5063991;28;20138;-69
2024/01/27 01:01:31;;;;;;;151.85;89.18;;;;;;;8.66;nan;99416.75;5042469;28;20456;-69
2024/01/27 01:04:00;;;;;;;143.05;88.10;;;;;;;8.77;nan;99415.59;5039027;28;20524;-70
2024/01/27 01:06:29;;;;;;;148.77;90.00;;;;;;;8.84;nan;99416.59;5046521;28;20053;-69
2024/01/27 01:08:59;;;;;;;161.32;92.35;;;;;;;8.65;nan;99419.53;5040798;28;20041;-69
2024/01/27 01:11:28;;;;;;;152.85;89.90;;;;;;;8.54;nan;99429.41;5036895;28;20048;-69
2024/01/27 01:13:58;;;;;;;140.45;87.50;;;;;;;8.46;nan;99421.47;5040551;28;20041;-69
2024/01/27 01:16:27;;;;;;;143.63;88.85;;;;;;;8.37;nan;99424.25;5053276;28;20065;-69
2024/01/27 01:18:56;;;;;;;151.77;90.28;;;;;;;8.52;nan;99417.38;5050522;28;20057;-69
2024/01/27 01:21:26;;;;;;;153.30;86.93;;;;;;;8.75;nan;99428.97;5042129;28;20146;-70
2024/01/27 01:23:55;;;;;;;140.93;86.68;;;;;;;8.70;nan;99433.09;5037810;28;20094;-70
2024/01/27 01:26:25;;;;;;;135.82;82.03;;;;;;;8.67;nan;99438.69;5021655;28;20049;-69
2024/01/27 01:28:55;;;;;;;138.32;84.20;;;;;;;8.57;nan;99439.66;5025684;28;20123;-69
2024/01/27 01:31:24;;;;;;;141.85;83.40;;;;;;;8.48;nan;99442.44;5031841;28;20053;-69
2024/01/27 01:33:54;;;;;;;136.27;80.72;;;;;;;8.80;nan;99450.44;5033026;28;20045;-70
2024/01/27 01:36:23;;;;;;;130.93;78.00;;;;;;;8.66;nan;99444.97;5021510;28;20060;-69
2024/01/27 01:38:53;;;;;;;123.03;77.85;;;;;;;8.56;nan;99450.38;5039145;28;20052;-69
2024/01/27 01:41:22;;;;;;;129.60;73.72;;;;;;;8.63;nan;99446.09;5059690;28;20487;-69
2024/01/27 01:43:51;;;;;;;119.18;70.20;;;;;;;8.74;nan;99456.38;5061146;28;20590;-69
2024/01/27 01:46:23;;;;;;;121.38;70.93;;;;;;;8.83;nan;99450.09;5060774;28;20150;-69
2024/01/27 01:48:54;;;;;;;119.83;71.77;;;;;;;8.73;nan;99449.41;5061092;28;20052;-69
2024/01/27 01:51:24;;;;;;;119.68;67.90;;;;;;;8.85;nan;99452.59;5060840;28;20136;-69
2024/01/27 01:53:58;;;;;;;112.97;65.97;;;;;;;8.75;nan;99459.84;5060891;28;20049;-69
2024/01/27 01:56:28;;;;;;;111.97;67.10;;;;;;;8.92;nan;99464.16;5061236;28;20134;-69
2024/01/27 01:58:58;;;;;;;108.53;67.03;;;;;;;8.94;nan;99465.63;5060866;28;20067;-69
2024/01/27 02:01:28;;;;;;;113.53;70.07;;;;;;;8.83;nan;99468.59;5060635;28;20055;-69
2024/01/27 02:03:58;;;;;;;111.07;69.15;;;;;;;8.96;nan;99476.03;5065904;28;20052;-69
2024/01/27 02:06:27;;;;;;;117.50;70.07;;;;;;;8.91;nan;99473.06;5047638;28;20052;-70
2024/01/27 02:08:57;;;;;;;109.53;71.78;;;;;;;8.92;nan;99469.44;5065544;28;20570;-69
2024/01/27 02:11:26;;;;;;;118.57;68.75;;;;;;;8.91;nan;99473.88;5065126;28;20083;-70
2024/01/27 02:13:56;;;;;;;114.93;70.88;;;;;;;8.90;nan;99477.50;5066260;28;20056;-69
2024/01/27 02:16:25;;;;;;;110.15;68.93;;;;;;;9.00;nan;99475.56;5065719;28;20052;-70
2024/01/27 02:18:54;;;;;;;112.47;71.88;;;;;;;8.94;nan;99473.56;5066082;28;20048;-70
2024/01/27 02:21:24;;;;;;;111.53;71.05;;;;;;;9.09;nan;99475.56;5066337;28;20044;-69
2024/01/27 02:23:53;;;;;;;122.53;74.68;;;;;;;8.98;nan;99482.81;5051461;28;20098;-69
2024/01/27 02:26:23;;;;;;;127.80;77.55;;;;;;;9.06;nan;99482.00;5066144;28;20048;-69
2024/01/27 02:28:52;;;;;;;132.70;80.28;;;;;;;9.09;nan;99483.47;5066438;28;20052;-69
2024/01/27 02:31:21;;;;;;;129.52;81.32;;;;;;;8.97;nan;99483.81;5055570;28;20044;-69
2024/01/27 02:33:51;;;;;;;130.82;80.45;;;;;;;9.03;nan;99492.88;5045777;28;20056;-69
2024/01/27 02:36:20;;;;;;;124.53;79.65;;;;;;;9.06;nan;99492.56;5045579;28;20150;-73
2024/01/27 02:38:49;;;;;;;137.05;82.47;;;;;;;9.10;nan;99482.50;5045367;28;20158;-70
2024/01/27 02:41:18;;;;;;;128.10;82.28;;;;;;;9.13;nan;99500.66;5045147;28;20797;-70
2024/01/27 02:43:48;;;;;;;141.52;82.47;;;;;;;9.14;nan;99502.31;5045696;28;20080;-69
2024/01/27 02:46:18;;;;;;;132.88;83.78;;;;;;;9.41;nan;99496.72;5024048;28;20045;-69
2024/01/27 02:48:48;;;;;;;130.50;83.28;;;;;;;9.30;nan;99502.31;5043834;28;20040;-70
2024/01/27 02:51:20;;;;;;;139.57;84.47;;;;;;;9.36;nan;99501.69;5044959;28;20052;-70
2024/01/27 02:53:50;;;;;;;139.05;84.30;;;;;;;9.36;nan;99502.50;5046230;28;20049;-70
2024/01/27 02:56:19;;;;;;;139.75;84.50;;;;;;;9.57;nan;99501.16;5045722;28;20780;-69
2024/01/27 02:58:48;;;;;;;138.57;83.05;;;;;;;9.57;nan;99506.44;5045357;28;20037;-69
2024/01/27 03:01:17;;;;;;;134.55;84.68;;;;;;;9.67;nan;99507.94;5043861;28;20052;-70
2024/01/27 03:03:47;;;;;;;148.98;84.55;;;;;;;9.81;nan;99503.78;5039810;28;20059;-70
2024/01/27 03:06:16;;;;;;;144.07;88.38;;;;;;;9.89;nan;99509.91;5039541;28;20057;-69
2024/01/27 03:08:46;;;;;;;150.43;87.60;;;;;;;9.96;nan;99517.19;5044890;28;20049;-69
2024/01/27 03:11:15;;;;;;;137.10;89.20;;;;;;;10.26;nan;99527.06;5037123;28;20041;-70
2024/01/27 03:13:45;;;;;;;148.00;88.97;;;;;;;10.38;nan;99516.91;5043590;28;20061;-70
2024/01/27 03:16:17;;;;;;;152.38;91.40;;;;;;;10.35;nan;99515.44;5033393;28;20536;-69
2024/01/27 03:18:46;;;;;;;142.85;90.65;;;;;;;10.50;nan;99511.06;5045087;28;20052;-69
2024/01/27 03:21:16;;;;;;;142.13;89.72;;;;;;;10.51;nan;99517.19;5038667;28;20626;-70
2024/01/27 03:23:45;;;;;;;142.00;88.40;;;;;;;10.51;nan;99522.47;5045226;28;20044;-70
2024/01/27 03:26:14;;;;;;;144.40;90.63;;;;;;;10.94;nan;99524.59;5040049;28;20045;-69
2024/01/27 03:28:44;;;;;;;142.43;87.35;;;;;;;11.44;nan;99539.16;5045554;28;20053;-69
2024/01/27 03:31:13;;;;;;;130.10;84.25;;;;;;;11.79;nan;99543.06;5044396;28;20053;-69
2024/01/27 03:33:42;;;;;;;128.80;81.72;;;;;;;12.35;nan;99537.16;5045997;28;20056;-69
2024/01/27 03:36:12;;;;;;;127.95;83.05;;;;;;;12.61;nan;99544.69;5045243;28;20062;-69
2024/01/27 03:38:42;;;;;;;120.35;79.30;;;;;;;12.89;nan;99536.84;5027853;28;20149;-69
2024/01/27 03:41:11;;;;;;;121.72;79.78;;;;;;;13.20;nan;99537.44;5027577;28;20048;-69
2024/01/27 03:43:41;;;;;;;119.32;80.78;;;;;;;13.47;nan;99547.31;5044152;28;20123;-69
2024/01/27 03:46:10;;;;;;;118.65;77.43;;;;;;;13.69;nan;99537.50;5044115;28;20044;-69
2024/01/27 03:48:39;;;;;;;124.35;77.40;;;;;;;13.92;nan;99546.09;5046179;28;20080;-69
2024/01/27 03:51:11;;;;;;;118.25;78.60;;;;;;;14.24;nan;99546.50;5044172;28;20055;-70
2024/01/27 03:53:40;;;;;;;121.65;76.30;;;;;;;14.60;nan;99538.34;5044654;28;20150;-69
2024/01/27 03:56:12;;;;;;;118.25;77.70;;;;;;;14.79;nan;99546.44;5043971;28;20060;-70
2024/01/27 03:58:42;;;;;;;116.47;75.55;;;;;;;14.52;nan;99549.16;5044654;28;20068;-70
2024/01/27 04:01:11;;;;;;;122.22;77.00;;;;;;;14.48;nan;99548.72;5044037;28;20119;-70
2024/01/27 04:03:40;;;;;;;125.38;82.25;;;;;;;14.90;nan;99542.38;5044692;28;20048;-70
2024/01/27 04:06:10;;;;;;;121.72;82.28;;;;;;;14.72;nan;99542.09;5044159;28;20072;-70
2024/01/27 04:08:43;;;;;;;137.50;84.78;;;;;;;14.52;nan;99549.16;5044194;28;20404;-69
2024/01/27 04:11:22;;;;;;;132.27;85.30;;;;;;;14.68;nan;99552.34;5043763;28;20041;-69
2024/01/27 04:13:52;;;;;;;129.75;87.03;;;;;;;14.62;nan;99561.13;5027067;28;20132;-70
2024/01/27 04:16:21;;;;;;;150.32;91.22;;;;;;;14.88;nan;99552.41;5022174;28;20745;-68
2024/01/27 04:18:50;;;;;;;152.20;93.32;;;;;;;14.99;nan;99557.19;5030039;28;20055;-70
2024/01/27 04:21:20;;;;;;;143.70;90.80;;;;;;;15.20;nan;99557.03;5035215;28;20041;-69
2024/01/27 04:23:49;;;;;;;142.32;91.20;;;;;;;15.16;nan;99552.31;5041870;28;20041;-70
2024/01/27 04:26:18;;;;;;;137.30;89.68;;;;;;;15.31;nan;99550.31;5043810;28;20674;-70
2024/01/27 04:28:48;;;;;;;148.05;95.15;;;;;;;15.37;nan;99552.16;5041796;28;20060;-69
2024/01/27 04:31:17;;;;;;;144.57;92.30;;;;;;;15.40;nan;99540.25;5042083;28;20057;-69
2024/01/27 04:33:47;;;;;;;148.57;95.10;;;;;;;15.73;nan;99533.13;5048802;28;20053;-69
2024/01/27 04:36:26;;;;;;;155.75;93.93;;;;;;;15.91;nan;99546.69;5043867;28;20048;-69
2024/01/27 04:38:56;;;;;;;148.63;96.07;;;;;;;15.93;nan;99541.94;5061007;28;20044;-69
2024/01/27 04:41:25;;;;;;;148.95;95.93;;;;;;;16.31;nan;99543.97;5057173;28;20048;-69
2024/01/27 04:43:56;;;;;;;144.63;96.47;;;;;;;16.45;nan;99543.75;5054283;28;20052;-69
2024/01/27 04:46:25;;;;;;;140.32;96.65;;;;;;;16.72;nan;99547.19;5043985;28;20045;-69
2024/01/27 04:48:55;;;;;;;148.02;96.00;;;;;;;16.97;nan;99549.97;5057427;28;20044;-69
2024/01/27 04:51:25;;;;;;;160.35;99.82;;;;;;;17.42;nan;99545.41;5057499;28;20420;-70
2024/01/27 04:53:54;;;;;;;142.13;96.20;;;;;;;17.26;nan;99543.25;5045264;28;20468;-68
2024/01/27 04:56:23;;;;;;;142.45;93.03;;;;;;;17.31;nan;99541.53;5045192;28;20622;-68
2024/01/27 04:58:52;;;;;;;146.50;93.65;;;;;;;17.28;nan;99539.28;5018668;28;20124;-68
2024/01/27 05:01:22;;;;;;;136.57;89.63;;;;;;;17.54;nan;99540.97;5026333;28;20060;-68
2024/01/27 05:03:51;;;;;;;121.85;80.43;;;;;;;17.63;nan;99542.38;5025567;28;20433;-68
2024/01/27 05:06:20;;;;;;;113.28;78.60;;;;;;;17.78;nan;99550.94;5023156;28;20560;-68
2024/01/27 05:08:50;;;;;;;120.50;78.60;;;;;;;17.70;nan;99548.50;5039473;28;20084;-68
2024/01/27 05:11:32;;;;;;;125.57;78.28;;;;;;;17.73;nan;99549.94;5038191;28;20140;-68
2024/01/27 05:14:02;;;;;;;122.27;76.13;;;;;;;17.81;nan;99550.50;5042145;28;20063;-69
2024/01/27 05:16:32;;;;;;;103.28;70.07;;;;;;;17.75;nan;99559.41;5043657;28;20335;-68
2024/01/27 05:19:01;;;;;;;112.82;70.22;;;;;;;17.91;nan;99566.91;5027218;28;20084;-68
2024/01/27 05:21:30;;;;;;;110.70;71.93;;;;;;;18.37;nan;99569.16;5048906;28;20137;-68
2024/01/27 05:23:59;;;;;;;105.38;66.75;;;;;;;18.27;nan;99565.38;5046154;28;20132;-68
2024/01/27 05:26:29;;;;;;;104.30;68.30;;;;;;;18.26;nan;99569.91;5045423;28;20048;-68
2024/01/27 05:28:58;;;;;;;105.32;67.43;;;;;;;18.80;nan;99569.16;5028484;28;20447;-68
2024/01/27 05:31:27;;;;;;;99.60;66.97;;;;;;;18.89;nan;99574.22;5046505;28;20041;-67
2024/01/27 05:33:57;;;;;;;141.98;89.28;;;;;;;18.58;nan;99570.66;5063155;28;20049;-68
2024/01/27 05:36:26;;;;;;;141.95;92.25;;;;;;;18.13;nan;99569.22;5061934;28;20659;-68
2024/01/27 05:38:55;;;;;;;146.60;90.40;;;;;;;18.46;nan;99567.00;5063310;28;20488;-70
2024/01/27 05:41:30;;;;;;;139.98;90.03;;;;;;;19.22;nan;99580.00;5062139;28;20055;-70
2024/01/27 05:44:00;;;;;;;135.32;90.68;;;;;;;18.77;nan;99564.22;5062366;28;20151;-71
2024/01/27 05:46:30;;;;;;;142.65;93.68;;;;;;;18.60;nan;99554.31;5044809;28;20052;-70
2024/01/27 05:49:02;;;;;;;158.88;97.72;;;;;;;18.37;nan;99546.88;5045799;28;20067;-70
2024/01/27 05:51:33;;;;;;;153.45;95.53;;;;;;;18.45;nan;99545.78;5062676;28;20043;-73
2024/01/27 05:54:02;;;;;;;140.73;90.88;;;;;;;18.67;nan;99542.47;5062755;28;20060;-71
2024/01/27 05:56:33;;;;;;;126.53;82.50;;;;;;;18.78;nan;99530.97;5062941;28;20123;-70
2024/01/27 05:59:02;;;;;;;132.07;81.07;;;;;;;18.40;nan;99530.38;5062647;28;20049;-70
2024/01/27 06:01:32;;;;;;;131.63;84.60;;;;;;;18.68;nan;99532.53;5062752;28;20782;-72
2024/01/27 06:04:02;;;;;;;105.32;68.57;;;;;;;18.93;nan;99527.09;5044343;28;20055;-71
2024/01/27 06:06:31;;;;;;;108.32;63.85;;;;;;;18.98;nan;99527.25;5061999;28;20052;-72
2024/01/27 06:09:00;;;;;;;115.03;70.00;;;;;;;18.96;nan;99532.81;5046970;28;20049;-72
2024/01/27 06:11:30;;;;;;;112.70;72.60;;;;;;;18.98;nan;99527.25;5062642;28;20044;-72
2024/01/27 06:13:59;;;;;;;113.18;71.07;;;;;;;19.27;nan;99531.78;5045759;28;20388;-71
2024/01/27 06:16:28;;;;;;;97.85;66.22;;;;;;;19.08;nan;99522.94;5043724;28;20107;-72
2024/01/27 06:18:58;;;;;;;95.47;63.78;;;;;;;19.26;nan;99522.09;5062944;28;20106;-71
2024/01/27 06:21:27;;;;;;;92.50;58.40;;;;;;;19.74;nan;99520.13;5039727;28;20608;-72
2024/01/27 06:23:57;;;;;;;77.65;51.80;;;;;;;19.63;nan;99514.75;5059815;28;20059;-72
2024/01/27 06:26:26;;;;;;;92.03;54.60;;;;;;;19.29;nan;99513.59;5062235;28;20086;-72
2024/01/27 06:28:56;;;;;;;89.88;60.03;;;;;;;19.83;nan;99511.72;5062840;28;20037;-72
2024/01/27 06:31:25;;;;;;;99.20;64.28;;;;;;;19.76;nan;99511.84;5044148;28;20824;-72
2024/01/27 06:33:54;;;;;;;107.57;64.88;;;;;;;19.70;nan;99510.91;5059630;28;20048;-72
2024/01/27 06:36:25;;;;;;;89.28;59.20;;;;;;;19.61;nan;99506.09;5041937;28;20049;-72
2024/01/27 06:38:55;;;;;;;86.10;53.78;;;;;;;19.43;nan;99490.03;5042815;28;20041;-72
2024/01/27 06:41:24;;;;;;;91.72;57.47;;;;;;;19.46;nan;99486.91;5047227;28;20076;-72
2024/01/27 06:43:53;;;;;;;90.30;61.30;;;;;;;19.76;nan;99489.53;5063129;28;20626;-72
2024/01/27 06:46:23;;;;;;;91.40;56.28;;;;;;;19.90;nan;99489.06;5062406;28;20044;-72
2024/01/27 06:48:52;;;;;;;85.82;54.63;;;;;;;19.88;nan;99469.66;5065520;28;20051;-70
2024/01/27 06:51:21;;;;;;;87.07;53.22;;;;;;;19.90;nan;99464.06;5066189;28;20442;-72
2024/01/27 06:53:50;;;;;;;87.13;53.78;;;;;;;19.94;nan;99449.09;5066012;28;20045;-72
2024/01/27 06:56:20;;;;;;;100.38;61.20;;;;;;;19.80;nan;99442.31;5065995;28;20044;-72
2024/01/27 06:58:49;;;;;;;116.93;58.05;;;;;;;19.88;nan;99448.16;5066043;28;20428;-72
2024/01/27 07:01:18;;;;;;;95.25;59.97;;;;;;;20.16;nan;99439.34;5065046;28;20063;-72
2024/01/27 07:03:47;;;;;;;99.88;59.72;;;;;;;20.13;nan;99442.53;5064347;28;20072;-72
2024/01/27 07:06:17;;;;;;;88.55;58.45;;;;;;;20.38;nan;99437.72;5065237;28;20143;-71
2024/01/27 07:08:46;;;;;;;94.65;58.97;;;;;;;20.13;nan;99445.22;5065062;28;20036;-72
2024/01/27 07:11:16;;;;;;;96.90;57.38;;;;;;;20.49;nan;99441.44;5060238;28;20045;-72
2024/01/27 07:13:45;;;;;;;89.88;54.65;;;;;;;20.15;nan;99435.03;5041453;28;20430;-71
2024/01/27 07:16:14;;;;;;;82.10;52.65;;;;;;;19.98;nan;99423.34;5063977;28;20387;-71
2024/01/27 07:18:44;;;;;;;80.82;50.05;;;;;;;20.22;nan;99419.59;5066103;28;20045;-73
2024/01/27 07:21:17;;;;;;;84.50;49.95;;;;;;;20.44;nan;99417.94;5060196;28;20048;-72
2024/01/27 07:23:46;;;;;;;74.78;50.90;;;;;;;20.40;nan;99403.28;5063481;28;20052;-73
2024/01/27 07:26:16;;;;;;;79.00;47.97;;;;;;;20.51;nan;99394.38;5058204;28;20045;-71
2024/01/27 07:28:45;;;;;;;71.50;47.33;;;;;;;20.62;nan;99404.25;5063826;28;20045;-73
2024/01/27 07:31:15;;;;;;;77.18;47.97;;;;;;;20.55;nan;99398.22;5072940;28;20063;-72
2024/01/27 07:33:44;;;;;;;73.68;48.72;;;;;;;20.51;nan;99386.31;5073976;28;20110;-73
2024/01/27 07:36:13;;;;;;;76.97;49.42;;;;;;;20.45;nan;99389.94;5070510;28;20564;-73
2024/01/27 07:38:43;;;;;;;76.22;51.33;;;;;;;20.47;nan;99390.53;5072551;28;20060;-71
2024/01/27 07:41:13;;;;;;;77.40;53.28;;;;;;;20.52;nan;99379.06;5064677;28;20121;-71
2024/01/27 07:43:42;;;;;;;83.95;52.78;;;;;;;20.73;nan;99367.59;5059668;28;20044;-77
2024/01/27 07:46:11;;;;;;;77.07;52.72;;;;;;;20.84;nan;99380.19;5056483;28;20618;-73
2024/01/27 07:48:41;;;;;;;88.05;53.38;;;;;;;20.59;nan;99369.75;5066718;28;20054;-71
2024/01/27 07:51:10;;;;;;;84.18;54.25;;;;;;;20.36;nan;99360.97;5067193;28;20082;-68
2024/01/27 07:53:39;;;;;;;77.68;53.08;;;;;;;20.56;nan;99354.09;5067246;28;20048;-75
2024/01/27 07:56:08;;;;;;;81.35;52.45;;;;;;;20.79;nan;99344.28;5067760;28;20080;-70
2024/01/27 07:58:38;;;;;;;78.88;51.50;;;;;;;20.76;nan;99340.19;5060442;28;20052;-73
2024/01/27 08:01:07;;;;;;;72.13;50.35;;;;;;;20.78;nan;99338.06;5065436;28;20080;-73
2024/01/27 08:03:36;;;;;;;79.55;50.42;;;;;;;20.80;nan;99335.16;5069724;28;20045;-73
2024/01/27 08:06:09;;;;;;;68.72;44.75;;;;;;;20.77;nan;99335.63;5072200;28;20573;-72
2024/01/27 08:08:39;;;;;;;68.97;43.97;;;;;;;20.84;nan;99336.28;5063392;28;20036;-73
2024/01/27 08:11:08;;;;;;;75.30;45.63;;;;;;;20.90;nan;99316.44;5075433;28;20102;-73
2024/01/27 08:13:38;;;;;;;68.28;43.70;;;;;;;20.93;nan;99319.47;5061330;28;20064;-72
2024/01/27 08:16:09;;;;;;;62.33;40.00;;;;;;;20.83;nan;99313.94;5076280;28;20072;-73
2024/01/27 08:18:44;;;;;;;63.08;40.20;;;;;;;20.93;nan;99311.38;5026736;28;20792;-72
2024/01/27 08:21:13;;;;;;;55.63;36.40;;;;;;;20.99;nan;99306.91;5064884;28;20056;-71
2024/01/27 08:23:44;;;;;;;57.10;35.45;;;;;;;21.08;nan;99300.06;5053082;28;20516;-72
2024/01/27 08:26:13;;;;;;;51.13;34.90;;;;;;;21.09;nan;99301.69;5059198;28;20044;-72
2024/01/27 08:28:43;;;;;;;55.25;33.35;;;;;;;21.02;nan;99291.06;5056364;28;20044;-71
2024/01/27 08:31:12;;;;;;;64.47;31.92;;;;;;;21.05;nan;99293.28;5053600;28;20151;-75
2024/01/27 08:33:41;;;;;;;46.63;29.63;;;;;;;20.99;nan;99290.75;5048140;28;20051;-77
2024/01/27 08:36:16;;;;;;;55.25;30.45;;;;;;;21.05;nan;99277.13;5037394;28;20041;-74
2024/01/27 08:38:46;;;;;;;54.00;31.05;;;;;;;21.17;nan;99278.94;5042953;28;20435;-65
2024/01/27 08:41:15;;;;;;;52.60;28.90;;;;;;;21.15;nan;99267.59;5059311;28;20052;-69
2024/01/27 08:43:44;;;;;;;43.60;27.70;;;;;;;21.10;nan;99273.69;5054415;28;20498;-75
2024/01/27 08:46:15;;;;;;;43.35;24.75;;;;;;;21.05;nan;99263.66;5044134;28;20086;-72
2024/01/27 08:48:44;;;;;;;37.58;24.58;;;;;;;21.03;nan;99255.00;5039860;28;20514;-72
2024/01/27 08:51:15;;;;;;;36.72;25.40;;;;;;;21.10;nan;99251.34;5063210;28;20144;-73
2024/01/27 08:53:51;;;;;;;40.47;26.75;;;;;;;21.04;nan;99245.03;5055387;28;20045;-74
2024/01/27 08:56:21;;;;;;;35.10;23.95;;;;;;;21.04;nan;99236.97;5062318;28;20064;-73
2024/01/27 08:58:51;;;;;;;39.45;22.85;;;;;;;20.93;nan;99232.50;5062597;28;20052;-72
2024/01/27 09:01:20;;;;;;;39.55;24.05;;;;;;;20.61;nan;99222.31;5045144;28;20064;-75
2024/01/27 09:03:49;;;;;;;41.88;24.27;;;;;;;20.53;nan;99221.91;5045479;28;20424;-72
2024/01/27 09:06:19;;;;;;;33.72;21.42;;;;;;;20.58;nan;99220.09;5062482;28;20048;-72
2024/01/27 09:08:48;;;;;;;32.72;22.63;;;;;;;20.68;nan;99216.75;5044086;28;20044;-72
2024/01/27 09:11:17;;;;;;;34.95;23.00;;;;;;;20.66;nan;99216.19;5066017;28;20472;-73
2024/01/27 09:13:48;;;;;;;32.13;20.85;;;;;;;20.63;nan;99212.09;5043737;28;20040;-69
2024/01/27 09:16:18;;;;;;;45.60;24.42;;;;;;;20.68;nan;99214.06;5043310;28;20040;-72
2024/01/27 09:18:50;;;;;;;35.53;21.27;;;;;;;20.79;nan;99215.88;5063072;28;20553;-73
2024/01/27 09:21:22;;;;;;;38.78;20.10;;;;;;;20.81;nan;99213.72;5061983;28;20701;-69
2024/01/27 09:23:52;;;;;;;31.55;18.52;;;;;;;20.82;nan;99209.16;5044427;28;20106;-74
2024/01/27 09:26:22;;;;;;;36.53;17.58;;;;;;;20.79;nan;99218.56;5061581;28;20102;-71
2024/01/27 09:28:55;;;;;;;23.77;16.30;;;;;;;20.75;nan;99214.72;5062330;28;20515;-75
2024/01/27 09:31:25;;;;;;;25.55;15.73;;;;;;;20.78;nan;99213.41;5044147;28;20059;-71
2024/01/27 09:33:55;;;;;;;24.17;15.30;;;;;;;20.81;nan;99211.03;5061794;28;20139;-77
2024/01/27 09:36:25;;;;;;;30.38;17.05;;;;;;;20.70;nan;99200.38;5060669;28;20571;-78
2024/01/27 09:38:55;;;;;;;22.15;14.93;;;;;;;20.64;nan;99204.84;5060219;28;20051;-76
2024/01/27 09:41:25;;;;;;;22.50;14.40;;;;;;;20.57;nan;99199.66;5044627;28;20036;-77
2024/01/27 09:43:59;;;;;;;25.23;14.02;;;;;;;20.58;nan;99203.94;5042898;28;20898;-77
2024/01/27 09:46:31;;;;;;;22.10;14.13;;;;;;;20.60;nan;99207.22;5058516;28;20045;-77
2024/01/27 09:49:04;;;;;;;26.55;14.18;;;;;;;20.41;nan;99202.31;5061003;28;20079;-77
2024/01/27 09:51:34;;;;;;;24.10;13.93;;;;;;;20.42;nan;99201.25;5058449;28;20033;-77
2024/01/27 09:54:03;;;;;;;19.52;13.63;;;;;;;20.40;nan;99200.69;5064393;28;20045;-77
2024/01/27 09:56:34;;;;;;;27.38;13.90;;;;;;;20.44;nan;99189.22;5043470;28;20052;-77
2024/01/27 09:59:06;;;;;;;25.15;13.77;;;;;;;20.56;nan;99199.88;5056494;28;20049;-76
2024/01/27 10:01:37;;;;;;;21.73;13.23;;;;;;;20.67;nan;99203.56;5060545;28;20076;-77
2024/01/27 10:04:09;;;;;;;24.15;14.23;;;;;;;20.65;nan;99205.66;5041661;28;20151;-78
2024/01/27 10:06:39;;;;;;;22.17;13.93;;;;;;;20.58;nan;99206.63;5060047;28;20071;-78
2024/01/27 10:09:09;;;;;;;24.02;14.77;;;;;;;20.52;nan;99204.94;5039313;28;20040;-77
2024/01/27 10:11:42;;;;;;;28.80;15.70;;;;;;;20.42;nan;99210.16;5051983;28;20102;-76
2024/01/27 10:14:11;;;;;;;34.40;15.90;;;;;;;20.32;nan;99204.59;5062441;28;20045;-75
2024/01/27 10:16:45;;;;;;;25.73;15.93;;;;;;;20.26;nan;99193.97;5044371;28;20131;-76
2024/01/27 10:19:21;;;;;;;26.50;14.60;;;;;;;20.25;nan;99187.78;5043698;28;20049;-77
2024/01/27 10:22:04;;;;;;;24.52;14.73;;;;;;;20.21;nan;99178.56;5061915;28;20106;-74
2024/01/27 10:24:35;;;;;;;24.90;14.73;;;;;;;20.19;nan;99183.34;5067868;28;20087;-76
2024/01/27 10:27:05;;;;;;;31.83;15.38;;;;;;;20.19;nan;99186.84;5030244;28;20048;-73
2024/01/27 10:29:35;;;;;;;37.88;17.27;;;;;;;20.28;nan;99192.66;5021870;28;20068;-74
2024/01/27 10:32:10;;;;;;;24.17;15.10;;;;;;;20.35;nan;99193.34;5069651;28;20064;-75
2024/01/27 10:34:40;;;;;;;23.55;15.45;;;;;;;20.30;nan;99195.97;5017949;28;20245;-74
2024/01/27 10:37:13;;;;;;;30.15;17.80;;;;;;;20.18;nan;99195.16;5062479;28;20478;-74
2024/01/27 10:39:42;;;;;;;24.83;17.30;;;;;;;20.18;nan;99190.59;4994305;28;20053;-74
2024/01/27 10:42:12;;;;;;;35.40;17.60;;;;;;;20.08;nan;99174.31;5060902;28;20154;-74
2024/01/27 10:44:44;;;;;;;32.88;18.45;;;;;;;20.07;nan;99179.91;5049410;28;20059;-73
2024/01/27 10:47:19;;;;;;;28.77;18.33;;;;;;;19.99;nan;99170.38;5030682;28;20137;-74
2024/01/27 10:49:49;;;;;;;27.95;17.35;;;;;;;19.95;nan;99171.09;5052121;28;20043;-73
2024/01/27 10:52:23;;;;;;;30.48;17.25;;;;;;;19.97;nan;99174.34;5029266;28;20778;-74
2024/01/27 10:54:54;;;;;;;33.70;19.08;;;;;;;19.98;nan;99171.44;5061225;28;20048;-74
2024/01/27 10:57:26;;;;;;;28.98;16.85;;;;;;;19.99;nan;99173.06;5048401;28;20687;-73
2024/01/27 10:59:57;;;;;;;33.42;18.15;;;;;;;19.95;nan;99173.78;5046033;28;20059;-73
2024/01/27 11:02:32;;;;;;;35.17;17.55;;;;;;;19.98;nan;99170.59;5043531;28;20049;-71
2024/01/27 11:05:04;;;;;;;40.75;19.55;;;;;;;19.98;nan;99170.59;5047338;28;20052;-71
2024/01/27 11:07:35;;;;;;;31.60;21.05;;;;;;;20.02;nan;99172.56;5065362;28;20056;-73
2024/01/27 11:10:04;;;;;;;33.67;17.45;;;;;;;20.07;nan;99175.34;5046857;28;20131;-73
2024/01/27 11:12:34;;;;;;;31.70;18.73;;;;;;;20.15;nan;99168.75;5046349;28;20055;-78
2024/01/27 11:15:03;;;;;;;36.20;19.63;;;;;;;20.11;nan;99171.13;5048713;28;20052;-76
2024/01/27 11:17:43;;;;;;;29.92;17.98;;;;;;;20.07;nan;99183.44;5065570;28;20751;-75
2024/01/27 11:20:13;;;;;;;34.20;17.75;;;;;;;20.00;nan;99181.94;5039884;28;20040;-79
2024/01/27 11:22:43;;;;;;;37.97;17.58;;;;;;;19.96;nan;99184.28;5057097;28;20048;-76
2024/01/27 11:25:13;;;;;;;29.58;18.35;;;;;;;20.02;nan;99177.13;5053429;28;20065;-71
2024/01/27 11:27:44;;;;;;;31.58;17.98;;;;;;;19.86;nan;99180.59;5062895;28;20048;-71
2024/01/27 11:30:28;;;;;;;32.45;18.85;;;;;;;19.81;nan;99184.03;5066686;28;20074;-75
2024/01/27 11:33:01;;;;;;;28.13;17.90;;;;;;;19.64;nan;99180.47;5019793;28;20465;-73
2024/01/27 11:35:30;;;;;;;42.38;19.15;;;;;;;19.64;nan;99175.91;5035623;28;20124;-77
2024/01/27 11:37:59;;;;;;;30.98;17.88;;;;;;;19.57;nan;99179.78;5037954;28;20166;-70
2024/01/27 11:40:29;;;;;;;35.17;17.38;;;;;;;19.54;nan;99170.34;5034137;28;20041;-73
2024/01/27 11:43:02;;;;;;;31.52;16.88;;;;;;;19.55;nan;99169.28;5043299;28;20049;-77
2024/01/27 11:45:34;;;;;;;28.88;16.50;;;;;;;19.49;nan;99162.16;5053671;28;20053;-77